sensor_id;sensor_type;location;lat;lon;timestamp;P1;durP1;ratioP1;P2;durP2;ratioP2
27127;SDS011;14660;49.008;8.390;2023-03-01T00:01:27;20.30;;;10.02;;
27127;SDS011;14660;49.008;8.390;2023-03-01T00:03:56;21.08;;;10.23;;
27127;SDS011;14660;49.008;8.390;2023-03-01T00:06:24;18.05;;;12.25;;
27127;SDS011;14660;49.008;8.390;2023-03-01T00:08:53;18.48;;;10.20;;
27127;SDS011;14660;49.008;8.390;2023-03-01T00:14:04;17.73;;;10.73;;
27127;SDS011;14660;49.008;8.390;2023-03-01T00:16:34;17.15;;;10.90;;
27127;SDS011;14660;49.008;8.390;2023-03-01T00:19:06;16.63;;;9.70;;
27127;SDS011;14660;49.008;8.390;2023-03-01T00:21:35;15.85;;;9.43;;
27127;SDS011;14660;49.008;8.390;2023-03-01T00:24:02;20.90;;;12.00;;
27127;SDS011;14660;49.008;8.390;2023-03-01T00:26:31;18.65;;;9.05;;
27127;SDS011;14660;49.008;8.390;2023-03-01T00:28:58;18.33;;;9.90;;
27127;SDS011;14660;49.008;8.390;2023-03-01T00:31:29;16.48;;;9.07;;
27127;SDS011;14660;49.008;8.390;2023-03-01T00:34:00;21.05;;;11.63;;
27127;SDS011;14660;49.008;8.390;2023-03-01T00:36:32;15.32;;;9.43;;
27127;SDS011;14660;49.008;8.390;2023-03-01T00:39:03;17.67;;;10.32;;
27127;SDS011;14660;49.008;8.390;2023-03-01T00:41:31;17.00;;;9.27;;
27127;SDS011;14660;49.008;8.390;2023-03-01T00:44:01;14.73;;;8.65;;
27127;SDS011;14660;49.008;8.390;2023-03-01T00:46:28;15.68;;;10.13;;
27127;SDS011;14660;49.008;8.390;2023-03-01T00:48:56;18.48;;;9.98;;
27127;SDS011;14660;49.008;8.390;2023-03-01T00:51:25;19.90;;;10.20;;
27127;SDS011;14660;49.008;8.390;2023-03-01T00:53:55;20.02;;;9.85;;
27127;SDS011;14660;49.008;8.390;2023-03-01T00:56:25;14.52;;;9.13;;
27127;SDS011;14660;49.008;8.390;2023-03-01T00:58:53;16.60;;;9.10;;
27127;SDS011;14660;49.008;8.390;2023-03-01T01:01:21;16.27;;;9.55;;
27127;SDS011;14660;49.008;8.390;2023-03-01T01:06:39;19.13;;;9.68;;
27127;SDS011;14660;49.008;8.390;2023-03-01T01:09:11;15.27;;;8.40;;
27127;SDS011;14660;49.008;8.390;2023-03-01T01:11:47;16.63;;;10.05;;
27127;SDS011;14660;49.008;8.390;2023-03-01T01:14:16;14.20;;;8.60;;
27127;SDS011;14660;49.008;8.390;2023-03-01T01:16:44;17.15;;;9.55;;
27127;SDS011;14660;49.008;8.390;2023-03-01T01:19:14;20.20;;;10.15;;
27127;SDS011;14660;49.008;8.390;2023-03-01T01:21:40;18.42;;;9.13;;
27127;SDS011;14660;49.008;8.390;2023-03-01T01:24:10;17.05;;;9.25;;
27127;SDS011;14660;49.008;8.390;2023-03-01T01:26:38;15.82;;;8.40;;
27127;SDS011;14660;49.008;8.390;2023-03-01T01:29:05;17.95;;;9.88;;
27127;SDS011;14660;49.008;8.390;2023-03-01T01:31:32;17.27;;;9.07;;
27127;SDS011;14660;49.008;8.390;2023-03-01T01:34:01;18.25;;;9.60;;
27127;SDS011;14660;49.008;8.390;2023-03-01T01:36:30;14.93;;;8.77;;
27127;SDS011;14660;49.008;8.390;2023-03-01T01:38:56;17.00;;;8.38;;
27127;SDS011;14660;49.008;8.390;2023-03-01T01:41:24;15.52;;;9.10;;
27127;SDS011;14660;49.008;8.390;2023-03-01T01:47:08;18.58;;;9.63;;
27127;SDS011;14660;49.008;8.390;2023-03-01T01:49:57;16.42;;;9.57;;
27127;SDS011;14660;49.008;8.390;2023-03-01T01:52:35;17.50;;;9.80;;
27127;SDS011;14660;49.008;8.390;2023-03-01T01:57:51;19.20;;;10.68;;
27127;SDS011;14660;49.008;8.390;2023-03-01T02:00:25;18.23;;;9.32;;
27127;SDS011;14660;49.008;8.390;2023-03-01T02:03:04;19.13;;;9.60;;
27127;SDS011;14660;49.008;8.390;2023-03-01T02:08:40;17.53;;;10.00;;
27127;SDS011;14660;49.008;8.390;2023-03-01T02:11:08;18.70;;;10.05;;
27127;SDS011;14660;49.008;8.390;2023-03-01T02:13:37;19.10;;;9.68;;
27127;SDS011;14660;49.008;8.390;2023-03-01T02:16:13;20.13;;;9.50;;
27127;SDS011;14660;49.008;8.390;2023-03-01T02:18:42;16.27;;;9.80;;
27127;SDS011;14660;49.008;8.390;2023-03-01T02:21:20;17.50;;;10.02;;
27127;SDS011;14660;49.008;8.390;2023-03-01T02:24:21;15.95;;;10.60;;
27127;SDS011;14660;49.008;8.390;2023-03-01T02:27:13;21.48;;;11.20;;
27127;SDS011;14660;49.008;8.390;2023-03-01T02:29:42;17.77;;;10.23;;
27127;SDS011;14660;49.008;8.390;2023-03-01T02:32:09;17.55;;;10.32;;
27127;SDS011;14660;49.008;8.390;2023-03-01T02:34:38;34.65;;;10.30;;
27127;SDS011;14660;49.008;8.390;2023-03-01T02:37:12;17.73;;;10.82;;
27127;SDS011;14660;49.008;8.390;2023-03-01T02:39:46;22.10;;;11.32;;
27127;SDS011;14660;49.008;8.390;2023-03-01T02:42:21;17.45;;;10.25;;
27127;SDS011;14660;49.008;8.390;2023-03-01T02:44:51;19.67;;;9.75;;
27127;SDS011;14660;49.008;8.390;2023-03-01T02:47:19;21.05;;;12.32;;
27127;SDS011;14660;49.008;8.390;2023-03-01T02:49:46;20.73;;;11.10;;
27127;SDS011;14660;49.008;8.390;2023-03-01T02:55:18;17.75;;;10.02;;
27127;SDS011;14660;49.008;8.390;2023-03-01T02:57:46;18.73;;;10.45;;
27127;SDS011;14660;49.008;8.390;2023-03-01T03:00:23;23.40;;;10.15;;
27127;SDS011;14660;49.008;8.390;2023-03-01T03:02:59;20.38;;;11.95;;
27127;SDS011;14660;49.008;8.390;2023-03-01T03:05:30;17.48;;;11.02;;
27127;SDS011;14660;49.008;8.390;2023-03-01T03:07:58;16.55;;;10.25;;
27127;SDS011;14660;49.008;8.390;2023-03-01T03:10:27;21.20;;;10.98;;
27127;SDS011;14660;49.008;8.390;2023-03-01T03:12:57;17.63;;;11.50;;
27127;SDS011;14660;49.008;8.390;2023-03-01T03:15:25;18.08;;;11.48;;
27127;SDS011;14660;49.008;8.390;2023-03-01T03:17:53;21.60;;;11.13;;
27127;SDS011;14660;49.008;8.390;2023-03-01T03:20:22;22.42;;;10.00;;
27127;SDS011;14660;49.008;8.390;2023-03-01T03:22:52;20.02;;;10.05;;
27127;SDS011;14660;49.008;8.390;2023-03-01T03:25:20;16.98;;;9.98;;
27127;SDS011;14660;49.008;8.390;2023-03-01T03:27:49;19.17;;;9.90;;
27127;SDS011;14660;49.008;8.390;2023-03-01T03:30:24;19.30;;;10.82;;
27127;SDS011;14660;49.008;8.390;2023-03-01T03:32:52;20.08;;;10.43;;
27127;SDS011;14660;49.008;8.390;2023-03-01T03:35:39;23.08;;;11.00;;
27127;SDS011;14660;49.008;8.390;2023-03-01T03:38:09;20.88;;;11.57;;
27127;SDS011;14660;49.008;8.390;2023-03-01T03:40:48;17.98;;;10.15;;
27127;SDS011;14660;49.008;8.390;2023-03-01T03:43:17;19.15;;;11.23;;
27127;SDS011;14660;49.008;8.390;2023-03-01T03:45:46;18.67;;;10.65;;
27127;SDS011;14660;49.008;8.390;2023-03-01T03:48:19;21.02;;;11.07;;
27127;SDS011;14660;49.008;8.390;2023-03-01T03:50:50;18.95;;;11.65;;
27127;SDS011;14660;49.008;8.390;2023-03-01T03:53:20;22.30;;;12.23;;
27127;SDS011;14660;49.008;8.390;2023-03-01T03:55:48;19.42;;;11.45;;
27127;SDS011;14660;49.008;8.390;2023-03-01T03:58:14;21.10;;;11.45;;
27127;SDS011;14660;49.008;8.390;2023-03-01T04:00:45;23.23;;;12.43;;
27127;SDS011;14660;49.008;8.390;2023-03-01T04:03:16;19.85;;;11.15;;
27127;SDS011;14660;49.008;8.390;2023-03-01T04:05:45;20.58;;;11.18;;
27127;SDS011;14660;49.008;8.390;2023-03-01T04:08:13;19.23;;;10.35;;
27127;SDS011;14660;49.008;8.390;2023-03-01T04:13:15;20.75;;;10.80;;
27127;SDS011;14660;49.008;8.390;2023-03-01T04:15:49;19.23;;;11.18;;
27127;SDS011;14660;49.008;8.390;2023-03-01T04:18:16;27.17;;;13.07;;
27127;SDS011;14660;49.008;8.390;2023-03-01T04:20:45;23.30;;;12.40;;
27127;SDS011;14660;49.008;8.390;2023-03-01T04:25:59;18.90;;;10.30;;
27127;SDS011;14660;49.008;8.390;2023-03-01T04:31:18;22.83;;;12.27;;
27127;SDS011;14660;49.008;8.390;2023-03-01T04:33:47;22.58;;;11.30;;
27127;SDS011;14660;49.008;8.390;2023-03-01T04:36:19;22.08;;;12.00;;
27127;SDS011;14660;49.008;8.390;2023-03-01T04:38:49;20.98;;;11.18;;
27127;SDS011;14660;49.008;8.390;2023-03-01T04:41:18;23.63;;;12.13;;
27127;SDS011;14660;49.008;8.390;2023-03-01T04:43:45;22.40;;;11.40;;
27127;SDS011;14660;49.008;8.390;2023-03-01T04:46:13;22.83;;;11.88;;
27127;SDS011;14660;49.008;8.390;2023-03-01T04:48:44;22.83;;;12.65;;
27127;SDS011;14660;49.008;8.390;2023-03-01T04:51:10;25.17;;;12.95;;
27127;SDS011;14660;49.008;8.390;2023-03-01T04:53:42;21.05;;;10.73;;
27127;SDS011;14660;49.008;8.390;2023-03-01T04:56:10;21.40;;;12.35;;
27127;SDS011;14660;49.008;8.390;2023-03-01T04:58:37;18.45;;;12.20;;
27127;SDS011;14660;49.008;8.390;2023-03-01T05:01:08;24.92;;;13.55;;
27127;SDS011;14660;49.008;8.390;2023-03-01T05:03:44;22.90;;;10.60;;
27127;SDS011;14660;49.008;8.390;2023-03-01T05:06:12;17.42;;;11.98;;
27127;SDS011;14660;49.008;8.390;2023-03-01T05:08:47;21.65;;;11.77;;
27127;SDS011;14660;49.008;8.390;2023-03-01T05:11:13;22.48;;;12.00;;
27127;SDS011;14660;49.008;8.390;2023-03-01T05:13:40;21.40;;;12.10;;
27127;SDS011;14660;49.008;8.390;2023-03-01T05:16:07;24.02;;;11.25;;
27127;SDS011;14660;49.008;8.390;2023-03-01T05:18:37;22.55;;;12.38;;
27127;SDS011;14660;49.008;8.390;2023-03-01T05:21:07;21.75;;;12.52;;
27127;SDS011;14660;49.008;8.390;2023-03-01T05:23:36;21.10;;;11.88;;
27127;SDS011;14660;49.008;8.390;2023-03-01T05:26:04;22.25;;;11.90;;
27127;SDS011;14660;49.008;8.390;2023-03-01T05:28:32;22.77;;;11.25;;
27127;SDS011;14660;49.008;8.390;2023-03-01T05:30:59;25.10;;;13.10;;
27127;SDS011;14660;49.008;8.390;2023-03-01T05:33:26;22.45;;;13.32;;
27127;SDS011;14660;49.008;8.390;2023-03-01T05:35:53;20.05;;;11.10;;
27127;SDS011;14660;49.008;8.390;2023-03-01T05:38:20;25.95;;;12.95;;
27127;SDS011;14660;49.008;8.390;2023-03-01T05:40:47;26.05;;;11.50;;
27127;SDS011;14660;49.008;8.390;2023-03-01T05:43:16;24.50;;;12.40;;
27127;SDS011;14660;49.008;8.390;2023-03-01T05:45:46;23.85;;;12.52;;
27127;SDS011;14660;49.008;8.390;2023-03-01T05:48:15;23.15;;;11.13;;
27127;SDS011;14660;49.008;8.390;2023-03-01T05:50:43;22.05;;;12.05;;
27127;SDS011;14660;49.008;8.390;2023-03-01T05:55:56;24.42;;;12.88;;
27127;SDS011;14660;49.008;8.390;2023-03-01T05:58:22;20.80;;;12.88;;
27127;SDS011;14660;49.008;8.390;2023-03-01T06:00:50;22.83;;;12.45;;
27127;SDS011;14660;49.008;8.390;2023-03-01T06:03:17;23.73;;;11.32;;
27127;SDS011;14660;49.008;8.390;2023-03-01T06:05:44;21.88;;;11.23;;
27127;SDS011;14660;49.008;8.390;2023-03-01T06:08:14;25.77;;;13.00;;
27127;SDS011;14660;49.008;8.390;2023-03-01T06:10:45;23.50;;;11.07;;
27127;SDS011;14660;49.008;8.390;2023-03-01T06:13:15;26.77;;;12.85;;
27127;SDS011;14660;49.008;8.390;2023-03-01T06:15:43;21.95;;;13.85;;
27127;SDS011;14660;49.008;8.390;2023-03-01T06:18:09;21.50;;;11.73;;
27127;SDS011;14660;49.008;8.390;2023-03-01T06:20:36;24.23;;;11.02;;
27127;SDS011;14660;49.008;8.390;2023-03-01T06:23:03;27.50;;;12.07;;
27127;SDS011;14660;49.008;8.390;2023-03-01T06:25:30;22.88;;;11.63;;
27127;SDS011;14660;49.008;8.390;2023-03-01T06:27:57;26.33;;;11.90;;
27127;SDS011;14660;49.008;8.390;2023-03-01T06:30:25;23.40;;;11.98;;
27127;SDS011;14660;49.008;8.390;2023-03-01T06:32:53;22.92;;;12.13;;
27127;SDS011;14660;49.008;8.390;2023-03-01T06:35:27;28.90;;;12.30;;
27127;SDS011;14660;49.008;8.390;2023-03-01T06:37:56;23.63;;;12.57;;
27127;SDS011;14660;49.008;8.390;2023-03-01T06:40:29;23.65;;;12.18;;
27127;SDS011;14660;49.008;8.390;2023-03-01T06:42:57;24.13;;;12.32;;
27127;SDS011;14660;49.008;8.390;2023-03-01T06:45:24;27.70;;;12.98;;
27127;SDS011;14660;49.008;8.390;2023-03-01T06:47:51;27.55;;;14.70;;
27127;SDS011;14660;49.008;8.390;2023-03-01T06:50:18;22.42;;;13.13;;
27127;SDS011;14660;49.008;8.390;2023-03-01T06:52:45;27.73;;;15.30;;
27127;SDS011;14660;49.008;8.390;2023-03-01T06:55:11;25.52;;;11.32;;
27127;SDS011;14660;49.008;8.390;2023-03-01T06:57:39;21.80;;;13.75;;
27127;SDS011;14660;49.008;8.390;2023-03-01T07:00:06;24.55;;;13.48;;
27127;SDS011;14660;49.008;8.390;2023-03-01T07:02:34;35.00;;;15.30;;
27127;SDS011;14660;49.008;8.390;2023-03-01T07:05:01;22.77;;;13.48;;
27127;SDS011;14660;49.008;8.390;2023-03-01T07:07:28;24.88;;;12.95;;
27127;SDS011;14660;49.008;8.390;2023-03-01T07:09:54;24.30;;;13.25;;
27127;SDS011;14660;49.008;8.390;2023-03-01T07:12:21;26.98;;;14.45;;
27127;SDS011;14660;49.008;8.390;2023-03-01T07:14:48;26.73;;;13.70;;
27127;SDS011;14660;49.008;8.390;2023-03-01T07:17:16;33.88;;;14.80;;
27127;SDS011;14660;49.008;8.390;2023-03-01T07:19:45;26.85;;;13.60;;
27127;SDS011;14660;49.008;8.390;2023-03-01T07:22:10;22.67;;;14.00;;
27127;SDS011;14660;49.008;8.390;2023-03-01T07:24:37;23.63;;;13.68;;
27127;SDS011;14660;49.008;8.390;2023-03-01T07:27:04;25.58;;;13.27;;
27127;SDS011;14660;49.008;8.390;2023-03-01T07:29:31;26.58;;;13.48;;
27127;SDS011;14660;49.008;8.390;2023-03-01T07:31:57;24.27;;;13.95;;
27127;SDS011;14660;49.008;8.390;2023-03-01T07:34:24;25.90;;;15.02;;
27127;SDS011;14660;49.008;8.390;2023-03-01T07:36:51;25.25;;;13.75;;
27127;SDS011;14660;49.008;8.390;2023-03-01T07:39:18;34.28;;;13.80;;
27127;SDS011;14660;49.008;8.390;2023-03-01T07:41:45;24.70;;;15.13;;
27127;SDS011;14660;49.008;8.390;2023-03-01T07:44:13;26.17;;;13.05;;
27127;SDS011;14660;49.008;8.390;2023-03-01T07:46:38;27.80;;;15.18;;
27127;SDS011;14660;49.008;8.390;2023-03-01T07:49:07;26.95;;;14.30;;
27127;SDS011;14660;49.008;8.390;2023-03-01T07:51:34;28.08;;;14.77;;
27127;SDS011;14660;49.008;8.390;2023-03-01T07:53:59;32.05;;;12.82;;
27127;SDS011;14660;49.008;8.390;2023-03-01T07:56:27;29.38;;;13.77;;
27127;SDS011;14660;49.008;8.390;2023-03-01T07:58:54;30.85;;;14.75;;
27127;SDS011;14660;49.008;8.390;2023-03-01T08:01:21;28.25;;;14.77;;
27127;SDS011;14660;49.008;8.390;2023-03-01T08:03:48;30.10;;;14.80;;
27127;SDS011;14660;49.008;8.390;2023-03-01T08:06:16;28.95;;;15.23;;
27127;SDS011;14660;49.008;8.390;2023-03-01T08:08:46;29.48;;;15.48;;
27127;SDS011;14660;49.008;8.390;2023-03-01T08:11:14;27.23;;;13.68;;
27127;SDS011;14660;49.008;8.390;2023-03-01T08:13:41;28.75;;;14.73;;
27127;SDS011;14660;49.008;8.390;2023-03-01T08:16:15;31.23;;;15.35;;
27127;SDS011;14660;49.008;8.390;2023-03-01T08:18:41;27.90;;;14.90;;
27127;SDS011;14660;49.008;8.390;2023-03-01T08:21:10;28.38;;;14.10;;
27127;SDS011;14660;49.008;8.390;2023-03-01T08:23:38;27.77;;;14.15;;
27127;SDS011;14660;49.008;8.390;2023-03-01T08:28:51;30.85;;;15.55;;
27127;SDS011;14660;49.008;8.390;2023-03-01T08:34:06;27.90;;;14.15;;
27127;SDS011;14660;49.008;8.390;2023-03-01T08:36:39;27.20;;;13.40;;
27127;SDS011;14660;49.008;8.390;2023-03-01T08:39:09;27.42;;;14.48;;
27127;SDS011;14660;49.008;8.390;2023-03-01T08:41:37;29.15;;;16.33;;
27127;SDS011;14660;49.008;8.390;2023-03-01T08:44:05;34.47;;;15.75;;
27127;SDS011;14660;49.008;8.390;2023-03-01T08:46:33;30.42;;;15.27;;
27127;SDS011;14660;49.008;8.390;2023-03-01T08:49:06;24.67;;;12.98;;
27127;SDS011;14660;49.008;8.390;2023-03-01T08:51:38;27.80;;;14.75;;
27127;SDS011;14660;49.008;8.390;2023-03-01T08:54:05;28.90;;;15.75;;
27127;SDS011;14660;49.008;8.390;2023-03-01T08:56:37;29.67;;;16.20;;
27127;SDS011;14660;49.008;8.390;2023-03-01T08:59:04;27.73;;;15.15;;
27127;SDS011;14660;49.008;8.390;2023-03-01T09:01:31;27.00;;;14.10;;
27127;SDS011;14660;49.008;8.390;2023-03-01T09:03:58;27.55;;;13.52;;
27127;SDS011;14660;49.008;8.390;2023-03-01T09:06:25;31.20;;;15.48;;
27127;SDS011;14660;49.008;8.390;2023-03-01T09:08:51;29.65;;;14.38;;
27127;SDS011;14660;49.008;8.390;2023-03-01T09:11:21;28.05;;;14.52;;
27127;SDS011;14660;49.008;8.390;2023-03-01T09:13:50;28.52;;;13.68;;
27127;SDS011;14660;49.008;8.390;2023-03-01T09:16:18;30.85;;;14.23;;
27127;SDS011;14660;49.008;8.390;2023-03-01T09:18:56;26.80;;;13.90;;
27127;SDS011;14660;49.008;8.390;2023-03-01T09:21:23;28.85;;;15.57;;
27127;SDS011;14660;49.008;8.390;2023-03-01T09:23:50;27.88;;;13.90;;
27127;SDS011;14660;49.008;8.390;2023-03-01T09:26:18;31.40;;;14.55;;
27127;SDS011;14660;49.008;8.390;2023-03-01T09:28:47;32.90;;;13.73;;
27127;SDS011;14660;49.008;8.390;2023-03-01T09:31:18;28.77;;;15.07;;
27127;SDS011;14660;49.008;8.390;2023-03-01T09:33:47;31.95;;;15.05;;
27127;SDS011;14660;49.008;8.390;2023-03-01T09:36:16;29.58;;;15.45;;
27127;SDS011;14660;49.008;8.390;2023-03-01T09:38:45;31.02;;;15.45;;
27127;SDS011;14660;49.008;8.390;2023-03-01T09:44:16;26.65;;;15.10;;
27127;SDS011;14660;49.008;8.390;2023-03-01T09:47:03;30.33;;;15.90;;
27127;SDS011;14660;49.008;8.390;2023-03-01T09:49:32;30.02;;;14.25;;
27127;SDS011;14660;49.008;8.390;2023-03-01T09:52:21;30.50;;;15.90;;
27127;SDS011;14660;49.008;8.390;2023-03-01T09:55:11;28.58;;;14.75;;
27127;SDS011;14660;49.008;8.390;2023-03-01T10:00:47;30.33;;;15.50;;
27127;SDS011;14660;49.008;8.390;2023-03-01T10:06:19;23.25;;;14.77;;
27127;SDS011;14660;49.008;8.390;2023-03-01T10:11:43;29.90;;;16.08;;
27127;SDS011;14660;49.008;8.390;2023-03-01T10:20:14;34.42;;;16.35;;
27127;SDS011;14660;49.008;8.390;2023-03-01T10:23:00;31.40;;;17.83;;
27127;SDS011;14660;49.008;8.390;2023-03-01T10:31:49;27.88;;;16.40;;
27127;SDS011;14660;49.008;8.390;2023-03-01T10:37:18;24.83;;;15.18;;
27127;SDS011;14660;49.008;8.390;2023-03-01T10:42:35;32.08;;;15.13;;
27127;SDS011;14660;49.008;8.390;2023-03-01T10:45:27;30.45;;;17.38;;
27127;SDS011;14660;49.008;8.390;2023-03-01T10:53:49;29.73;;;15.70;;
27127;SDS011;14660;49.008;8.390;2023-03-01T10:56:18;31.13;;;17.25;;
27127;SDS011;14660;49.008;8.390;2023-03-01T10:59:03;32.42;;;15.60;;
27127;SDS011;14660;49.008;8.390;2023-03-01T11:01:32;29.08;;;15.10;;
27127;SDS011;14660;49.008;8.390;2023-03-01T11:06:57;29.33;;;15.70;;
27127;SDS011;14660;49.008;8.390;2023-03-01T11:09:29;30.40;;;16.63;;
27127;SDS011;14660;49.008;8.390;2023-03-01T11:12:05;30.02;;;16.83;;
27127;SDS011;14660;49.008;8.390;2023-03-01T11:14:46;29.95;;;15.68;;
27127;SDS011;14660;49.008;8.390;2023-03-01T11:17:28;28.20;;;15.85;;
27127;SDS011;14660;49.008;8.390;2023-03-01T11:23:03;28.60;;;15.93;;
27127;SDS011;14660;49.008;8.390;2023-03-01T11:25:54;25.52;;;15.98;;
27127;SDS011;14660;49.008;8.390;2023-03-01T11:28:23;30.23;;;16.70;;
27127;SDS011;14660;49.008;8.390;2023-03-01T12:22:47;32.10;;;16.15;;
27127;SDS011;14660;49.008;8.390;2023-03-01T13:07:08;31.30;;;15.65;;
27127;SDS011;14660;49.008;8.390;2023-03-01T13:15:48;29.33;;;14.88;;
27127;SDS011;14660;49.008;8.390;2023-03-01T13:21:06;27.83;;;15.23;;
27127;SDS011;14660;49.008;8.390;2023-03-01T13:23:36;30.63;;;15.82;;
27127;SDS011;14660;49.008;8.390;2023-03-01T13:28:51;28.42;;;16.13;;
27127;SDS011;14660;49.008;8.390;2023-03-01T13:34:41;28.73;;;14.63;;
27127;SDS011;14660;49.008;8.390;2023-03-01T13:37:10;25.95;;;14.95;;
27127;SDS011;14660;49.008;8.390;2023-03-01T13:39:47;25.33;;;13.85;;
27127;SDS011;14660;49.008;8.390;2023-03-01T13:51:09;33.67;;;15.20;;
27127;SDS011;14660;49.008;8.390;2023-03-01T13:53:55;29.85;;;16.13;;
27127;SDS011;14660;49.008;8.390;2023-03-01T13:59:18;29.10;;;15.00;;
27127;SDS011;14660;49.008;8.390;2023-03-01T14:01:51;25.92;;;15.35;;
27127;SDS011;14660;49.008;8.390;2023-03-01T14:04:28;32.45;;;16.27;;
27127;SDS011;14660;49.008;8.390;2023-03-01T14:09:58;24.58;;;14.10;;
27127;SDS011;14660;49.008;8.390;2023-03-01T14:21:33;26.55;;;15.95;;
27127;SDS011;14660;49.008;8.390;2023-03-01T14:24:02;27.40;;;16.15;;
27127;SDS011;14660;49.008;8.390;2023-03-01T14:26:30;23.98;;;14.00;;
27127;SDS011;14660;49.008;8.390;2023-03-01T14:29:01;30.58;;;15.75;;
27127;SDS011;14660;49.008;8.390;2023-03-01T14:34:21;34.58;;;19.08;;
27127;SDS011;14660;49.008;8.390;2023-03-01T14:36:49;26.52;;;15.02;;
27127;SDS011;14660;49.008;8.390;2023-03-01T14:39:16;25.80;;;15.10;;
27127;SDS011;14660;49.008;8.390;2023-03-01T14:41:51;28.67;;;15.60;;
27127;SDS011;14660;49.008;8.390;2023-03-01T14:44:19;29.55;;;17.42;;
27127;SDS011;14660;49.008;8.390;2023-03-01T14:46:51;25.33;;;14.40;;
27127;SDS011;14660;49.008;8.390;2023-03-01T14:51:54;28.77;;;15.25;;
27127;SDS011;14660;49.008;8.390;2023-03-01T14:54:27;25.45;;;13.95;;
27127;SDS011;14660;49.008;8.390;2023-03-01T14:57:15;25.02;;;13.95;;
27127;SDS011;14660;49.008;8.390;2023-03-01T14:59:51;29.58;;;16.48;;
27127;SDS011;14660;49.008;8.390;2023-03-01T15:02:26;35.75;;;16.77;;
27127;SDS011;14660;49.008;8.390;2023-03-01T15:05:00;22.95;;;13.60;;
27127;SDS011;14660;49.008;8.390;2023-03-01T15:07:34;26.67;;;14.38;;
27127;SDS011;14660;49.008;8.390;2023-03-01T15:10:06;24.55;;;14.48;;
27127;SDS011;14660;49.008;8.390;2023-03-01T15:12:41;27.65;;;14.45;;
27127;SDS011;14660;49.008;8.390;2023-03-01T15:15:53;25.10;;;14.13;;
27127;SDS011;14660;49.008;8.390;2023-03-01T15:18:03;23.83;;;15.18;;
27127;SDS011;14660;49.008;8.390;2023-03-01T15:20:52;26.75;;;14.20;;
27127;SDS011;14660;49.008;8.390;2023-03-01T15:23:23;30.63;;;15.00;;
27127;SDS011;14660;49.008;8.390;2023-03-01T15:25:56;28.02;;;14.20;;
27127;SDS011;14660;49.008;8.390;2023-03-01T15:28:29;25.67;;;15.75;;
27127;SDS011;14660;49.008;8.390;2023-03-01T15:31:16;24.80;;;16.35;;
27127;SDS011;14660;49.008;8.390;2023-03-01T15:33:50;26.90;;;14.32;;
27127;SDS011;14660;49.008;8.390;2023-03-01T15:36:31;25.05;;;13.63;;
27127;SDS011;14660;49.008;8.390;2023-03-01T15:39:54;24.15;;;14.40;;
27127;SDS011;14660;49.008;8.390;2023-03-01T15:42:51;24.98;;;14.13;;
27127;SDS011;14660;49.008;8.390;2023-03-01T15:45:21;24.50;;;13.18;;
27127;SDS011;14660;49.008;8.390;2023-03-01T15:47:52;24.15;;;15.02;;
27127;SDS011;14660;49.008;8.390;2023-03-01T15:50:28;27.13;;;16.30;;
27127;SDS011;14660;49.008;8.390;2023-03-01T15:53:00;28.55;;;15.70;;
27127;SDS011;14660;49.008;8.390;2023-03-01T15:55:32;31.38;;;16.40;;
27127;SDS011;14660;49.008;8.390;2023-03-01T16:01:02;26.70;;;14.47;;
27127;SDS011;14660;49.008;8.390;2023-03-01T16:03:34;23.83;;;14.25;;
27127;SDS011;14660;49.008;8.390;2023-03-01T16:06:01;23.55;;;13.68;;
27127;SDS011;14660;49.008;8.390;2023-03-01T16:08:29;30.20;;;14.98;;
27127;SDS011;14660;49.008;8.390;2023-03-01T16:10:54;26.67;;;14.85;;
27127;SDS011;14660;49.008;8.390;2023-03-01T16:13:22;29.33;;;15.23;;
27127;SDS011;14660;49.008;8.390;2023-03-01T16:15:51;29.20;;;15.98;;
27127;SDS011;14660;49.008;8.390;2023-03-01T16:18:19;32.45;;;16.48;;
27127;SDS011;14660;49.008;8.390;2023-03-01T16:20:46;28.90;;;14.93;;
27127;SDS011;14660;49.008;8.390;2023-03-01T16:23:13;28.23;;;14.10;;
27127;SDS011;14660;49.008;8.390;2023-03-01T16:25:40;27.70;;;16.23;;
27127;SDS011;14660;49.008;8.390;2023-03-01T16:28:07;30.02;;;16.30;;
27127;SDS011;14660;49.008;8.390;2023-03-01T16:30:45;28.23;;;14.32;;
27127;SDS011;14660;49.008;8.390;2023-03-01T16:33:14;26.88;;;14.02;;
27127;SDS011;14660;49.008;8.390;2023-03-01T16:35:41;26.67;;;14.70;;
27127;SDS011;14660;49.008;8.390;2023-03-01T16:38:11;23.30;;;14.18;;
27127;SDS011;14660;49.008;8.390;2023-03-01T16:40:37;27.15;;;16.75;;
27127;SDS011;14660;49.008;8.390;2023-03-01T16:43:04;25.23;;;14.82;;
27127;SDS011;14660;49.008;8.390;2023-03-01T16:45:35;23.10;;;14.48;;
27127;SDS011;14660;49.008;8.390;2023-03-01T16:48:02;21.85;;;13.73;;
27127;SDS011;14660;49.008;8.390;2023-03-01T16:50:30;26.27;;;13.23;;
27127;SDS011;14660;49.008;8.390;2023-03-01T16:52:57;28.98;;;14.93;;
27127;SDS011;14660;49.008;8.390;2023-03-01T16:55:24;23.27;;;13.02;;
27127;SDS011;14660;49.008;8.390;2023-03-01T16:57:51;22.65;;;13.48;;
27127;SDS011;14660;49.008;8.390;2023-03-01T17:00:16;21.35;;;12.38;;
27127;SDS011;14660;49.008;8.390;2023-03-01T17:02:43;22.63;;;13.63;;
27127;SDS011;14660;49.008;8.390;2023-03-01T17:05:10;23.48;;;14.50;;
27127;SDS011;14660;49.008;8.390;2023-03-01T17:07:38;25.67;;;14.88;;
27127;SDS011;14660;49.008;8.390;2023-03-01T17:10:06;23.13;;;12.60;;
27127;SDS011;14660;49.008;8.390;2023-03-01T17:12:34;24.67;;;12.70;;
27127;SDS011;14660;49.008;8.390;2023-03-01T17:15:02;24.38;;;13.38;;
27127;SDS011;14660;49.008;8.390;2023-03-01T17:17:30;28.13;;;15.15;;
27127;SDS011;14660;49.008;8.390;2023-03-01T17:19:58;22.58;;;13.50;;
27127;SDS011;14660;49.008;8.390;2023-03-01T17:22:25;25.40;;;13.60;;
27127;SDS011;14660;49.008;8.390;2023-03-01T17:24:50;18.60;;;11.00;;
27127;SDS011;14660;49.008;8.390;2023-03-01T17:27:17;24.20;;;14.18;;
27127;SDS011;14660;49.008;8.390;2023-03-01T17:29:45;26.02;;;14.52;;
27127;SDS011;14660;49.008;8.390;2023-03-01T17:32:12;29.92;;;15.43;;
27127;SDS011;14660;49.008;8.390;2023-03-01T17:34:39;23.25;;;13.77;;
27127;SDS011;14660;49.008;8.390;2023-03-01T17:37:06;24.90;;;13.63;;
27127;SDS011;14660;49.008;8.390;2023-03-01T17:39:34;23.98;;;13.63;;
27127;SDS011;14660;49.008;8.390;2023-03-01T17:42:02;23.02;;;13.38;;
27127;SDS011;14660;49.008;8.390;2023-03-01T17:44:31;25.02;;;13.00;;
27127;SDS011;14660;49.008;8.390;2023-03-01T17:47:00;22.67;;;13.48;;
27127;SDS011;14660;49.008;8.390;2023-03-01T17:49:27;27.77;;;13.35;;
27127;SDS011;14660;49.008;8.390;2023-03-01T17:51:54;25.20;;;12.65;;
27127;SDS011;14660;49.008;8.390;2023-03-01T17:54:23;24.83;;;14.05;;
27127;SDS011;14660;49.008;8.390;2023-03-01T17:56:50;23.92;;;14.45;;
27127;SDS011;14660;49.008;8.390;2023-03-01T17:59:16;22.95;;;13.20;;
27127;SDS011;14660;49.008;8.390;2023-03-01T18:01:43;24.90;;;14.50;;
27127;SDS011;14660;49.008;8.390;2023-03-01T18:04:10;27.35;;;14.30;;
27127;SDS011;14660;49.008;8.390;2023-03-01T18:06:37;27.75;;;15.30;;
27127;SDS011;14660;49.008;8.390;2023-03-01T18:09:06;24.70;;;13.30;;
27127;SDS011;14660;49.008;8.390;2023-03-01T18:11:37;27.08;;;12.63;;
27127;SDS011;14660;49.008;8.390;2023-03-01T18:14:04;21.17;;;12.10;;
27127;SDS011;14660;49.008;8.390;2023-03-01T18:16:31;25.02;;;14.55;;
27127;SDS011;14660;49.008;8.390;2023-03-01T18:18:59;21.52;;;13.50;;